Time;durP1;ratioP1;P1;durP2;ratioP2;P2;SDS_P1;SDS_P2;PMS_P1;PMS_P2;Temp;Humidity;BMP_temperature;BMP_pressure;BME280_temperature;BME280_humidity;BME280_pressure;Samples;Min_cycle;Max_cycle;Signal;HPM_P1;HPM_P2
2023/08/27 00:01:38;;;;;;;;;19.40;19.00;;;;;27.37;36.97;98801.06;5066108;28;8879;-78
2023/08/27 00:04:06;;;;;;;;;21.20;20.40;;;;;27.31;37.11;98802.53;5065868;28;8908;-77
2023/08/27 00:06:35;;;;;;;;;22.40;21.00;;;;;27.24;38.43;98805.00;5065956;28;8913;-77
2023/08/27 00:09:04;;;;;;;;;24.20;22.40;;;;;27.39;38.47;98805.28;5065973;28;8906;-77
2023/08/27 00:11:33;;;;;;;;;31.00;28.75;;;;;27.47;39.09;98811.75;5066154;28;8851;-79
2023/08/27 00:14:03;;;;;;;;;24.75;24.75;;;;;27.51;38.60;98797.75;5065791;28;8887;-79
2023/08/27 00:16:33;;;;;;;;;20.40;20.40;;;;;27.47;37.18;98799.09;5074362;28;8926;-76
2023/08/27 00:19:03;;;;;;;;;19.20;19.20;;;;;27.24;37.36;98793.38;5032563;28;8859;-77
2023/08/27 00:21:32;;;;;;;;;22.40;22.40;;;;;27.29;37.39;98796.47;5081944;28;8860;-79
2023/08/27 00:24:01;;;;;;;;;23.40;22.40;;;;;27.25;37.35;98792.41;5077877;28;8905;-79
2023/08/27 00:26:30;;;;;;;;;20.00;19.60;;;;;27.22;37.27;98787.31;5091889;28;8837;-76
2023/08/27 00:28:59;;;;;;;;;21.40;20.20;;;;;27.20;37.04;98782.06;5092400;28;8846;-79
2023/08/27 00:31:28;;;;;;;;;17.20;16.40;;;;;27.30;36.96;98787.34;5092572;28;8822;-79
2023/08/27 00:34:01;;;;;;;;;23.20;22.00;;;;;27.31;37.59;98782.78;5074259;28;8865;-77
2023/08/27 00:36:30;;;;;;;;;19.60;19.60;;;;;27.36;36.98;98775.91;5074345;28;8862;-77
2023/08/27 00:38:58;;;;;;;;;20.60;20.60;;;;;27.44;37.16;98780.53;5091618;28;9640;-78
2023/08/27 00:41:27;;;;;;;;;24.60;24.20;;;;;27.47;38.55;98782.91;5043929;28;8835;-77
2023/08/27 00:43:56;;;;;;;;;24.40;23.60;;;;;27.38;38.74;98773.94;5077902;28;8857;-79
2023/08/27 00:46:25;;;;;;;;;23.00;21.40;;;;;27.35;38.46;98771.53;5094726;28;8843;-76
2023/08/27 00:48:54;;;;;;;;;21.40;21.40;;;;;27.41;37.97;98778.16;5094016;28;8847;-77
2023/08/27 00:51:25;;;;;;;;;22.80;22.00;;;;;27.45;38.36;98772.25;5049246;28;8854;-78
2023/08/27 00:53:53;;;;;;;;;28.60;27.60;;;;;27.49;37.97;98774.66;5049116;28;8893;-77
2023/08/27 00:56:23;;;;;;;;;24.80;24.40;;;;;27.47;38.07;98771.25;5049234;28;8916;-79
2023/08/27 00:58:52;;;;;;;;;26.00;25.00;;;;;27.47;38.25;98763.16;5048859;28;9705;-80
2023/08/27 01:01:22;;;;;;;;;18.60;18.60;;;;;27.44;37.69;98762.47;5032693;28;8861;-78
2023/08/27 01:03:51;;;;;;;;;25.25;23.50;;;;;27.44;37.92;98764.34;5032382;28;8858;-76
2023/08/27 01:06:20;;;;;;;;;24.80;24.40;;;;;27.27;38.17;98763.41;5049059;28;8870;-78
2023/08/27 01:08:57;;;;;;;;;24.40;24.40;;;;;27.12;39.11;98755.03;5016350;28;9782;-78
2023/08/27 01:11:36;;;;;;;;;27.20;25.80;;;;;26.98;38.76;98758.25;5033060;28;8870;-77
2023/08/27 01:14:08;;;;;;;;;16.00;16.00;;;;;26.85;38.53;98750.56;5037865;28;8877;-78
2023/08/27 01:16:38;;;;;;;;;25.80;24.60;;;;;26.90;37.98;98742.03;5004416;28;8899;-78
2023/08/27 01:19:13;;;;;;;;;16.40;16.40;;;;;26.91;37.40;98741.00;4995052;28;8987;-77
2023/08/27 01:21:44;;;;;;;;;21.20;20.80;;;;;26.98;36.43;98745.63;4997508;28;8857;-76
2023/08/27 01:24:12;;;;;;;;;14.20;14.20;;;;;26.99;35.85;98741.94;5032998;28;8883;-77
2023/08/27 01:26:46;;;;;;;;;20.80;20.80;;;;;27.02;35.63;98733.56;5008168;28;9630;-77
2023/08/27 01:29:24;;;;;;;;;19.80;19.80;;;;;27.12;34.99;98740.69;5009000;28;8909;-79
2023/08/27 01:32:01;;;;;;;;;19.00;17.80;;;;;27.13;34.81;98740.53;4988139;28;8873;-78
2023/08/27 01:34:31;;;;;;;;;19.40;19.40;;;;;27.09;34.68;98731.06;4972988;28;9711;-80
2023/08/27 01:37:03;;;;;;;;;16.20;16.20;;;;;27.17;34.97;98735.66;4989200;28;8865;-76
2023/08/27 01:39:32;;;;;;;;;20.20;19.40;;;;;27.22;34.89;98728.78;4957717;28;8957;-78
2023/08/27 01:42:01;;;;;;;;;21.20;20.60;;;;;27.23;34.90;98735.88;4989403;28;8888;-78
2023/08/27 01:44:30;;;;;;;;;19.80;19.20;;;;;27.25;35.25;98727.63;4973364;28;8861;-78
2023/08/27 01:47:00;;;;;;;;;19.00;17.40;;;;;27.20;35.25;98725.41;5002101;28;8839;-76
2023/08/27 01:49:28;;;;;;;;;22.40;18.60;;;;;27.24;35.49;98720.53;5008189;28;8870;-79
2023/08/27 01:51:57;;;;;;;;;17.20;17.20;;;;;27.24;35.39;98721.38;4992305;28;8854;-78
2023/08/27 01:54:28;;;;;;;;;18.80;18.20;;;;;27.24;35.40;98731.31;4992295;28;8854;-77
2023/08/27 01:56:56;;;;;;;;;21.00;17.40;;;;;27.22;35.21;98722.53;4976159;28;8869;-78
2023/08/27 01:59:25;;;;;;;;;16.40;15.80;;;;;27.20;35.31;98717.31;4980333;28;9038;-79
2023/08/27 02:01:54;;;;;;;;;19.60;19.00;;;;;27.21;35.52;98718.16;5002734;28;8859;-79
2023/08/27 02:04:23;;;;;;;;;19.80;19.80;;;;;27.22;35.40;98720.69;5051841;28;8859;-78
2023/08/27 02:06:52;;;;;;;;;20.40;19.80;;;;;27.23;36.18;98718.81;5067960;28;8859;-76
2023/08/27 02:09:21;;;;;;;;;25.00;23.50;;;;;26.85;37.63;98721.78;5051430;28;8855;-77
2023/08/27 02:11:51;;;;;;;;;24.20;22.40;;;;;26.73;37.80;98712.22;5064601;28;8874;-75
2023/08/27 02:14:20;;;;;;;;;23.80;21.80;;;;;26.84;38.01;98721.94;5085274;28;9661;-76
2023/08/27 02:16:49;;;;;;;;;24.80;24.80;;;;;26.62;38.64;98716.00;5056142;28;8948;-76
2023/08/27 02:19:18;;;;;;;;;23.50;22.50;;;;;26.66;38.28;98717.41;5050870;28;8852;-77
2023/08/27 02:21:47;;;;;;;;;25.00;23.60;;;;;26.41;38.99;98720.88;5018066;28;8940;-77
2023/08/27 02:24:16;;;;;;;;;22.60;21.60;;;;;26.42;39.06;98727.97;5054705;28;8989;-78
2023/08/27 02:26:44;;;;;;;;;24.60;24.60;;;;;26.26;39.73;98724.09;5051303;28;8861;-79
2023/08/27 02:29:15;;;;;;;;;23.40;21.60;;;;;26.20;39.90;98721.16;5010890;28;8899;-78
2023/08/27 02:31:44;;;;;;;;;25.00;24.00;;;;;25.88;39.70;98730.56;5027717;28;8899;-79
2023/08/27 02:34:15;;;;;;;;;24.00;23.20;;;;;25.86;40.10;98732.56;5028811;28;8895;-77
2023/08/27 02:36:45;;;;;;;;;23.20;21.80;;;;;25.94;39.76;98734.53;5030943;28;8882;-77
2023/08/27 02:39:13;;;;;;;;;22.80;21.80;;;;;25.98;39.06;98717.06;5030434;28;8868;-80
2023/08/27 02:41:43;;;;;;;;;24.80;24.00;;;;;26.08;39.37;98718.69;5030525;28;8893;-77
2023/08/27 02:44:12;;;;;;;;;21.40;19.40;;;;;26.16;38.91;98712.53;5030055;28;8872;-78
2023/08/27 02:46:42;;;;;;;;;23.80;21.40;;;;;26.07;38.98;98718.84;5047133;28;9605;-77
2023/08/27 02:49:11;;;;;;;;;24.00;22.40;;;;;26.22;38.49;98719.16;5030305;28;9664;-76
2023/08/27 02:51:40;;;;;;;;;23.00;23.00;;;;;26.31;37.69;98709.34;5046936;28;8894;-78
2023/08/27 02:54:08;;;;;;;;;23.80;22.00;;;;;26.34;37.52;98712.53;5029999;28;8957;-80
2023/08/27 02:56:37;;;;;;;;;23.40;22.60;;;;;26.32;37.44;98711.84;5030256;28;9602;-80
2023/08/27 02:59:06;;;;;;;;;22.80;21.60;;;;;26.41;36.82;98710.91;5047567;28;8887;-79
2023/08/27 03:01:35;;;;;;;;;23.20;22.20;;;;;26.46;36.84;98700.56;5087150;28;8878;-77
2023/08/27 03:04:05;;;;;;;;;18.20;17.80;;;;;26.48;36.50;98701.25;5038256;28;8990;-79
2023/08/27 03:06:34;;;;;;;;;20.60;20.60;;;;;26.50;36.38;98702.97;5055270;28;8864;-77
2023/08/27 03:09:03;;;;;;;;;20.60;20.40;;;;;26.50;36.27;98698.41;5100172;28;8859;-76
2023/08/27 03:11:32;;;;;;;;;17.80;17.80;;;;;26.57;36.13;98702.19;5106165;28;8848;-77
2023/08/27 03:14:01;;;;;;;;;20.20;19.40;;;;;26.59;36.23;98704.69;5095404;28;8875;-78
2023/08/27 03:16:30;;;;;;;;;20.40;17.80;;;;;26.59;36.04;98704.69;5090140;28;8852;-78
2023/08/27 03:18:59;;;;;;;;;18.40;18.20;;;;;26.63;36.05;98703.41;5101594;28;8891;-77
2023/08/27 03:21:31;;;;;;;;;20.00;19.00;;;;;26.61;35.99;98697.31;5074538;28;9601;-77
2023/08/27 03:24:00;;;;;;;;;18.80;18.00;;;;;26.55;36.33;98701.50;5091393;28;8948;-78
2023/08/27 03:26:29;;;;;;;;;22.00;20.60;;;;;26.55;36.26;98701.50;5056654;28;8840;-79
2023/08/27 03:28:57;;;;;;;;;14.80;14.80;;;;;26.54;36.09;98707.03;5036660;28;8842;-77
2023/08/27 03:31:26;;;;;;;;;16.80;16.80;;;;;26.46;36.21;98697.00;5089041;28;8826;-78
2023/08/27 03:33:56;;;;;;;;;17.80;17.80;;;;;26.46;36.41;98700.56;5071433;28;8830;-77
2023/08/27 03:36:25;;;;;;;;;17.80;17.60;;;;;26.52;36.25;98699.09;5088785;28;8924;-77
2023/08/27 03:38:55;;;;;;;;;20.00;20.00;;;;;26.47;36.36;98712.19;5049919;28;8941;-76
2023/08/27 03:41:24;;;;;;;;;21.80;21.80;;;;;26.51;36.28;98715.41;5032876;28;8856;-76
2023/08/27 03:43:53;;;;;;;;;18.80;18.60;;;;;26.52;36.60;98717.97;5085230;28;8947;-79
2023/08/27 03:46:22;;;;;;;;;20.60;19.60;;;;;26.56;36.33;98711.25;5069886;28;8995;-80
2023/08/27 03:48:51;;;;;;;;;19.20;19.20;;;;;26.57;36.05;98709.41;5050351;28;8868;-79
2023/08/27 03:51:20;;;;;;;;;17.60;16.40;;;;;26.54;36.17;98725.91;5069940;28;8841;-77
2023/08/27 03:53:49;;;;;;;;;22.60;21.60;;;;;26.50;36.22;98722.66;5088075;28;8857;-76
2023/08/27 03:56:19;;;;;;;;;18.40;17.40;;;;;26.47;36.00;98723.84;5073977;28;8857;-77
2023/08/27 03:58:48;;;;;;;;;18.20;17.40;;;;;26.51;36.15;98729.72;5074226;28;8961;-78
2023/08/27 04:01:18;;;;;;;;;20.40;20.00;;;;;26.43;35.97;98726.94;5074358;28;8837;-78
2023/08/27 04:03:47;;;;;;;;;22.60;19.80;;;;;26.44;35.90;98725.97;5074706;28;8967;-78
2023/08/27 04:06:15;;;;;;;;;17.60;16.60;;;;;26.43;36.41;98725.09;5081955;28;8861;-75
2023/08/27 04:08:44;;;;;;;;;18.20;18.20;;;;;26.40;36.18;98728.09;5091527;28;8888;-76
2023/08/27 04:11:13;;;;;;;;;20.00;20.00;;;;;26.45;36.31;98733.84;5121564;28;8855;-78
2023/08/27 04:13:43;;;;;;;;;20.40;19.40;;;;;26.49;36.25;98729.03;5095543;28;8966;-76
2023/08/27 04:16:13;;;;;;;;;19.00;18.40;;;;;26.49;36.07;98731.75;5113763;28;8933;-77
2023/08/27 04:18:41;;;;;;;;;21.20;20.80;;;;;26.46;35.97;98729.34;5078879;28;8998;-77
2023/08/27 04:21:10;;;;;;;;;19.60;18.00;;;;;26.51;35.96;98735.13;5029346;28;8876;-77
2023/08/27 04:23:39;;;;;;;;;21.20;21.20;;;;;26.50;35.93;98736.13;5073433;28;9661;-77
2023/08/27 04:26:08;;;;;;;;;27.75;25.50;;;;;26.55;35.85;98739.22;5056974;28;8944;-78
2023/08/27 04:28:37;;;;;;;;;18.00;18.00;;;;;26.56;35.94;98734.69;5057617;28;8876;-77
2023/08/27 04:31:08;;;;;;;;;24.20;23.40;;;;;26.58;35.98;98746.97;5074380;28;8838;-77
2023/08/27 04:33:37;;;;;;;;;20.00;20.00;;;;;26.61;36.04;98754.78;5073924;28;8830;-77
2023/08/27 04:36:07;;;;;;;;;18.40;18.00;;;;;26.64;35.95;98756.31;5074063;28;8927;-79
2023/08/27 04:38:35;;;;;;;;;18.80;17.60;;;;;26.78;35.80;98749.53;5073845;28;8845;-76
2023/08/27 04:41:04;;;;;;;;;22.20;20.80;;;;;26.81;36.06;98752.72;5074203;28;9633;-79
2023/08/27 04:43:33;;;;;;;;;18.20;18.00;;;;;26.89;35.70;98754.69;5090912;28;8834;-78
2023/08/27 04:46:02;;;;;;;;;21.60;21.60;;;;;26.95;35.56;98755.88;5073622;28;9599;-79
2023/08/27 04:48:33;;;;;;;;;18.20;18.20;;;;;26.94;35.66;98757.72;5073832;28;8850;-78
2023/08/27 04:51:02;;;;;;;;;22.40;21.20;;;;;27.00;35.56;98756.25;5057602;28;8849;-76
2023/08/27 04:53:31;;;;;;;;;19.20;17.00;;;;;27.07;35.36;98764.59;5073897;28;8845;-80
2023/08/27 04:56:00;;;;;;;;;23.20;23.20;;;;;27.17;35.23;98770.72;5092105;28;8938;-77
2023/08/27 04:58:28;;;;;;;;;21.80;21.80;;;;;27.25;34.99;98768.13;5049370;28;8965;-77
2023/08/27 05:00:57;;;;;;;;;20.60;19.00;;;;;27.29;34.94;98774.00;5032713;28;8873;-76
2023/08/27 05:03:27;;;;;;;;;18.00;18.00;;;;;27.34;34.77;98779.78;5054406;28;8838;-76
2023/08/27 05:05:57;;;;;;;;;19.00;18.20;;;;;27.34;34.79;98782.47;5015340;28;8850;-77
2023/08/27 05:08:26;;;;;;;;;21.80;19.20;;;;;27.42;34.92;98787.91;5061134;28;8876;-76
2023/08/27 05:10:55;;;;;;;;;19.00;19.00;;;;;27.54;34.60;98775.03;5049649;28;8865;-77
2023/08/27 05:13:25;;;;;;;;;23.00;21.50;;;;;27.54;34.54;98783.13;5032421;28;8862;-77
2023/08/27 05:15:54;;;;;;;;;26.75;26.00;;;;;27.57;34.50;98780.97;5032195;28;8858;-77
2023/08/27 05:18:23;;;;;;;;;21.20;21.20;;;;;27.52;34.50;98777.03;5031848;28;9718;-78
2023/08/27 05:20:52;;;;;;;;;18.00;18.00;;;;;27.59;34.36;98775.41;5044566;28;8837;-77
2023/08/27 05:23:23;;;;;;;;;20.60;20.60;;;;;27.64;34.38;98776.59;5002506;28;8880;-80
2023/08/27 05:25:52;;;;;;;;;19.00;19.00;;;;;27.68;34.46;98777.13;5051844;28;8842;-77
2023/08/27 05:28:21;;;;;;;;;22.80;21.20;;;;;27.75;34.52;98780.88;5068732;28;8888;-78
2023/08/27 05:30:50;;;;;;;;;16.40;15.40;;;;;27.75;34.47;98780.03;5059840;28;8891;-79
2023/08/27 05:33:18;;;;;;;;;23.00;21.80;;;;;27.80;34.38;98777.72;5094085;28;8836;-76
2023/08/27 05:35:49;;;;;;;;;25.20;23.40;;;;;27.87;34.28;98776.03;5109939;28;8911;-79
2023/08/27 05:38:18;;;;;;;;;20.20;20.20;;;;;27.93;34.21;98783.50;5093103;28;8936;-78
2023/08/27 05:40:51;;;;;;;;;22.50;21.50;;;;;28.09;34.06;98784.56;5035179;28;8952;-79
2023/08/27 05:43:21;;;;;;;;;22.60;21.80;;;;;28.13;34.11;98789.50;5034796;28;9349;-77
2023/08/27 05:45:50;;;;;;;;;18.00;18.00;;;;;28.17;33.94;98784.63;5051428;28;8870;-77
2023/08/27 05:48:18;;;;;;;;;24.00;20.40;;;;;28.22;34.04;98785.81;5047863;28;8970;-77
2023/08/27 05:50:47;;;;;;;;;23.25;23.25;;;;;28.34;33.66;98789.03;5031167;28;8862;-77
2023/08/27 05:53:17;;;;;;;;;19.40;18.60;;;;;28.35;33.92;98788.03;5014212;28;9006;-79
2023/08/27 05:55:46;;;;;;;;;24.50;23.50;;;;;28.46;33.76;98786.91;5047868;28;8844;-77
2023/08/27 05:58:17;;;;;;;;;16.50;15.25;;;;;28.56;33.80;98792.16;5014570;28;8865;-78
2023/08/27 06:00:46;;;;;;;;;22.80;21.60;;;;;28.67;33.39;98786.44;4999233;28;8890;-78
2023/08/27 06:03:15;;;;;;;;;20.80;20.80;;;;;28.77;33.48;98787.09;5025635;28;8982;-77
2023/08/27 06:05:44;;;;;;;;;21.60;20.40;;;;;28.87;33.02;98786.09;5039978;28;9700;-79
2023/08/27 06:08:12;;;;;;;;;20.80;20.20;;;;;28.88;32.98;98791.34;5028345;28;8852;-78
2023/08/27 06:10:41;;;;;;;;;22.20;21.20;;;;;28.88;33.45;98790.50;5028011;28;8848;-78
2023/08/27 06:13:10;;;;;;;;;21.80;21.20;;;;;29.11;32.79;98794.22;5027682;28;8965;-78
2023/08/27 06:15:40;;;;;;;;;21.25;21.25;;;;;29.21;32.97;98791.34;5012676;28;8863;-78
2023/08/27 06:18:09;;;;;;;;;27.00;27.00;;;;;29.32;32.68;98780.16;5047372;28;8862;-79
2023/08/27 06:20:38;;;;;;;;;17.75;17.00;;;;;29.31;32.27;98774.91;5030677;28;8962;-77
2023/08/27 06:23:07;;;;;;;;;20.25;20.25;;;;;29.35;32.84;98773.59;5046907;28;8877;-77
2023/08/27 06:25:37;;;;;;;;;20.50;19.75;;;;;29.50;32.18;98776.41;5068054;28;8832;-79
2023/08/27 06:28:06;;;;;;;;;22.75;20.75;;;;;29.53;32.51;98773.34;5091878;28;8832;-77
2023/08/27 06:30:35;;;;;;;;;18.50;18.50;;;;;29.58;31.88;98773.69;5110366;28;8844;-77
2023/08/27 06:33:09;;;;;;;;;19.25;19.25;;;;;29.59;31.93;98771.81;5091935;28;9573;-79
2023/08/27 06:35:38;;;;;;;;;18.75;18.75;;;;;29.67;32.30;98779.91;5092369;28;8847;-79
2023/08/27 06:38:07;;;;;;;;;22.50;21.75;;;;;29.68;32.25;98782.47;5091910;28;8839;-77
2023/08/27 06:40:38;;;;;;;;;22.50;21.50;;;;;29.73;32.14;98784.66;5091990;28;8836;-77
2023/08/27 06:43:06;;;;;;;;;22.75;21.50;;;;;29.84;32.27;98789.72;5091903;28;8844;-77
2023/08/27 06:45:43;;;;;;;;;22.50;22.00;;;;;29.93;31.84;98790.50;5108705;28;8870;-79
2023/08/27 06:48:14;;;;;;;;;24.20;23.60;;;;;30.04;31.83;98800.13;5091645;28;8839;-78
2023/08/27 06:50:43;;;;;;;;;18.40;18.40;;;;;30.04;32.28;98800.13;5046311;28;8862;-76
2023/08/27 06:53:11;;;;;;;;;22.60;22.00;;;;;30.20;32.27;98799.22;5046785;28;8862;-78
2023/08/27 06:55:41;;;;;;;;;23.20;20.80;;;;;30.33;31.79;98802.19;5030596;28;8850;-78
2023/08/27 06:58:09;;;;;;;;;22.60;21.60;;;;;30.41;31.51;98798.56;5017051;28;8990;-75
2023/08/27 07:00:39;;;;;;;;;30.25;29.25;;;;;30.55;31.24;98797.81;5060092;28;8942;-77
2023/08/27 07:03:08;;;;;;;;;24.25;24.25;;;;;30.52;31.00;98787.31;5040626;28;8869;-77
2023/08/27 07:05:39;;;;;;;;;23.60;22.00;;;;;30.68;31.31;98791.81;5048830;28;8950;-76
2023/08/27 07:08:08;;;;;;;;;22.00;21.75;;;;;30.68;30.47;98791.81;5031234;28;8947;-79
2023/08/27 07:10:36;;;;;;;;;22.00;21.60;;;;;30.74;30.98;98801.09;5046734;28;8951;-77
2023/08/27 07:13:05;;;;;;;;;23.50;22.75;;;;;30.62;30.90;98804.22;5029993;28;8892;-77
2023/08/27 07:15:34;;;;;;;;;23.00;22.00;;;;;30.74;30.87;98801.09;5029946;28;8894;-78
2023/08/27 07:18:03;;;;;;;;;27.00;25.25;;;;;30.80;30.74;98806.63;5045995;28;8850;-79
2023/08/27 07:20:34;;;;;;;;;18.40;17.60;;;;;30.74;30.25;98820.09;5046373;28;8850;-78
2023/08/27 07:23:04;;;;;;;;;24.75;22.75;;;;;30.44;30.81;98812.63;5069881;28;8882;-78
2023/08/27 07:25:35;;;;;;;;;25.00;25.00;;;;;30.59;30.45;98818.13;5087561;28;8990;-78
2023/08/27 07:28:04;;;;;;;;;19.75;19.75;;;;;30.80;29.74;98808.50;5070130;28;8826;-78
2023/08/27 07:30:33;;;;;;;;;24.75;23.75;;;;;30.85;29.47;98814.25;5070791;28;9933;-80
2023/08/27 07:33:01;;;;;;;;;21.00;21.00;;;;;30.97;29.49;98807.34;5088750;28;8861;-77
2023/08/27 07:35:31;;;;;;;;;24.00;24.00;;;;;31.03;29.71;98812.06;5088707;28;8858;-76
2023/08/27 07:38:00;;;;;;;;;20.40;19.40;;;;;30.95;30.25;98801.28;5088560;28;8868;-80
2023/08/27 07:40:35;;;;;;;;;21.00;19.25;;;;;31.23;30.16;98806.97;5036987;28;8849;-77
2023/08/27 07:43:05;;;;;;;;;21.60;20.60;;;;;31.19;30.22;98810.25;5087282;28;8845;-77
2023/08/27 07:45:34;;;;;;;;;19.75;19.25;;;;;31.25;30.29;98801.38;5087071;28;8875;-78
2023/08/27 07:48:03;;;;;;;;;23.25;23.25;;;;;31.22;30.06;98805.31;5053110;28;8876;-77
2023/08/27 07:50:32;;;;;;;;;24.75;24.75;;;;;31.36;29.60;98802.81;5070726;28;8889;-77
2023/08/27 07:53:02;;;;;;;;;21.25;19.75;;;;;31.44;29.67;98803.53;5070991;28;8846;-75
2023/08/27 07:55:34;;;;;;;;;24.25;23.50;;;;;31.57;29.60;98810.22;5072864;28;8857;-77
2023/08/27 07:58:03;;;;;;;;;23.25;22.75;;;;;31.51;29.49;98814.53;5083234;28;8854;-77
2023/08/27 08:00:32;;;;;;;;;23.50;22.00;;;;;31.46;29.56;98809.63;5048922;28;8838;-76
2023/08/27 08:03:02;;;;;;;;;22.50;22.50;;;;;31.54;29.79;98803.28;5071866;28;8865;-78
2023/08/27 08:05:31;;;;;;;;;19.00;19.00;;;;;31.63;29.81;98804.03;5088962;28;8829;-78
2023/08/27 08:08:00;;;;;;;;;21.75;21.75;;;;;31.58;29.72;98809.19;5070510;28;9627;-77
2023/08/27 08:10:30;;;;;;;;;22.75;19.75;;;;;31.69;29.61;98811.47;5088401;28;8854;-77
2023/08/27 08:13:00;;;;;;;;;18.25;18.25;;;;;31.72;29.30;98810.25;5088463;28;8896;-79
2023/08/27 08:15:29;;;;;;;;;20.75;19.75;;;;;31.69;29.06;98806.03;5052844;28;8893;-78
2023/08/27 08:17:57;;;;;;;;;20.75;20.75;;;;;31.60;29.28;98810.69;5088579;28;8842;-77
2023/08/27 08:20:26;;;;;;;;;20.00;19.75;;;;;31.75;29.47;98801.72;5088289;28;8846;-79
2023/08/27 08:22:55;;;;;;;;;17.75;17.25;;;;;31.85;29.05;98796.84;5087852;28;8858;-78
2023/08/27 08:25:25;;;;;;;;;19.75;19.75;;;;;31.82;29.51;98802.66;5069955;28;8988;-77
2023/08/27 08:27:53;;;;;;;;;17.50;17.00;;;;;31.74;29.79;98803.59;5088212;28;9645;-78
2023/08/27 08:30:24;;;;;;;;;23.25;22.25;;;;;31.81;29.64;98800.97;5087983;28;8822;-75
2023/08/27 08:32:52;;;;;;;;;37.25;32.50;;;;;31.96;28.95;98801.81;5025140;28;8884;-77
2023/08/27 08:35:22;;;;;;;;;20.00;19.50;;;;;31.94;29.04;98801.16;5025197;28;8837;-76
2023/08/27 08:37:50;;;;;;;;;20.50;20.50;;;;;31.94;29.41;98797.56;5025268;28;8954;-77
2023/08/27 08:40:19;;;;;;;;;19.25;19.25;;;;;32.05;28.95;98797.09;5027081;28;8861;-78
2023/08/27 08:42:53;;;;;;;;;21.75;21.75;;;;;32.13;29.14;98793.41;5047298;28;8850;-76
2023/08/27 08:45:30;;;;;;;;;24.25;23.00;;;;;32.28;28.98;98785.25;5048975;28;8853;-76
2023/08/27 08:48:01;;;;;;;;;22.25;22.25;;;;;32.22;28.83;98785.00;5000190;28;8936;-77
2023/08/27 08:50:33;;;;;;;;;24.25;24.25;;;;;32.34;28.91;98781.78;5049863;28;8842;-78
2023/08/27 08:53:09;;;;;;;;;23.50;20.50;;;;;32.52;28.65;98784.06;5051609;28;8965;-77
2023/08/27 08:55:41;;;;;;;;;21.50;21.50;;;;;32.46;28.86;98783.78;5060348;28;8850;-76
2023/08/27 08:58:11;;;;;;;;;21.75;20.50;;;;;32.54;28.90;98788.25;5059070;28;8838;-79
2023/08/27 09:00:42;;;;;;;;;23.25;23.25;;;;;32.54;28.87;98782.81;5017385;28;8980;-79
2023/08/27 09:03:11;;;;;;;;;30.00;28.75;;;;;32.68;29.11;98783.84;5021429;28;8858;-78
2023/08/27 09:05:40;;;;;;;;;26.25;24.00;;;;;32.86;28.69;98788.81;5091629;28;9700;-77
2023/08/27 09:08:10;;;;;;;;;24.75;24.50;;;;;32.77;28.62;98782.69;5091869;28;8980;-76
2023/08/27 09:10:39;;;;;;;;;23.25;23.00;;;;;32.97;28.47;98782.84;5091339;28;8954;-77
2023/08/27 09:13:08;;;;;;;;;24.00;22.00;;;;;33.02;28.47;98774.09;5073332;28;8927;-78
2023/08/27 09:15:37;;;;;;;;;23.50;21.50;;;;;33.08;27.90;98778.78;5091137;28;8920;-76
2023/08/27 09:18:07;;;;;;;;;17.25;16.25;;;;;32.93;27.73;98781.56;5091159;28;8862;-78
2023/08/27 09:20:37;;;;;;;;;20.75;20.75;;;;;33.01;27.83;98784.13;5091154;28;8964;-78
2023/08/27 09:23:09;;;;;;;;;22.50;22.50;;;;;32.90;27.71;98775.66;5090921;28;8987;-77
2023/08/27 09:25:38;;;;;;;;;21.25;20.75;;;;;32.80;27.67;98770.56;5091080;28;9063;-79
2023/08/27 09:28:07;;;;;;;;;25.25;24.50;;;;;32.95;27.57;98775.91;5090985;28;8864;-81
2023/08/27 09:30:35;;;;;;;;;24.50;24.00;;;;;33.08;27.62;98767.88;5073288;28;8873;-76
2023/08/27 09:33:04;;;;;;;;;23.50;23.50;;;;;33.13;27.59;98768.16;5091029;28;8864;-79
2023/08/27 09:35:39;;;;;;;;;23.00;23.00;;;;;33.17;27.20;98761.25;5055712;28;8842;-77
2023/08/27 09:38:11;;;;;;;;;20.50;19.00;;;;;32.97;26.98;98771.94;5091118;28;8842;-77
2023/08/27 09:40:41;;;;;;;;;23.25;22.75;;;;;33.01;27.24;98765.06;5090473;28;8842;-78
2023/08/27 09:43:12;;;;;;;;;22.00;22.00;;;;;33.06;27.16;98756.31;5072204;28;8872;-78
2023/08/27 09:45:40;;;;;;;;;19.25;19.25;;;;;32.88;27.34;98759.50;5091002;28;8865;-78
2023/08/27 09:48:09;;;;;;;;;22.00;21.75;;;;;32.95;27.32;98754.97;5090749;28;8850;-77
2023/08/27 09:50:39;;;;;;;;;23.50;22.25;;;;;33.03;27.18;98760.25;5093670;28;8837;-77
2023/08/27 09:53:12;;;;;;;;;21.50;20.50;;;;;33.16;27.02;98756.00;5103125;28;9061;-79
2023/08/27 09:55:41;;;;;;;;;23.75;22.00;;;;;33.11;26.62;98748.44;5101710;28;8841;-77
2023/08/27 09:58:12;;;;;;;;;21.75;20.50;;;;;33.13;26.79;98751.81;5091370;28;8868;-77
2023/08/27 10:00:43;;;;;;;;;21.00;20.75;;;;;33.08;26.23;98735.22;5072546;28;8861;-76
2023/08/27 10:03:12;;;;;;;;;25.75;24.25;;;;;33.11;26.54;98737.53;5072172;28;8838;-80
2023/08/27 10:05:43;;;;;;;;;20.75;20.25;;;;;33.07;25.92;98736.22;5090220;28;8853;-76
2023/08/27 10:08:12;;;;;;;;;20.25;20.00;;;;;33.06;26.31;98730.97;5055239;28;8834;-77
2023/08/27 10:10:41;;;;;;;;;21.00;21.00;;;;;33.06;25.92;98725.53;5090319;28;8858;-79
2023/08/27 10:13:11;;;;;;;;;21.00;21.00;;;;;33.11;26.28;98726.66;5090241;28;8873;-78
2023/08/27 10:15:41;;;;;;;;;21.75;20.75;;;;;33.24;26.27;98723.16;5054874;28;8853;-78
2023/08/27 10:18:14;;;;;;;;;19.25;17.75;;;;;33.34;25.67;98722.78;5089890;28;8841;-78
2023/08/27 10:20:44;;;;;;;;;20.75;20.75;;;;;33.43;25.76;98727.03;5090302;28;8842;-78
2023/08/27 10:23:16;;;;;;;;;21.00;21.00;;;;;33.50;25.36;98729.81;5090000;28;8830;-76
2023/08/27 10:25:48;;;;;;;;;19.25;18.50;;;;;33.63;25.58;98731.81;5089771;28;8885;-78
2023/08/27 10:28:19;;;;;;;;;21.50;20.25;;;;;33.59;25.18;98732.19;5089698;28;8861;-78
2023/08/27 10:30:48;;;;;;;;;20.00;18.50;;;;;33.68;25.32;98721.97;5026942;28;9540;-78
2023/08/27 10:33:17;;;;;;;;;17.50;17.50;;;;;33.75;25.08;98722.00;5027253;28;8853;-79
2023/08/27 10:35:50;;;;;;;;;22.25;21.50;;;;;33.66;25.09;98715.88;4977807;28;8910;-77
2023/08/27 10:38:22;;;;;;;;;21.00;20.25;;;;;33.82;24.92;98711.97;5027203;28;8857;-77
2023/08/27 10:40:51;;;;;;;;;21.50;21.25;;;;;34.04;24.99;98712.69;5027138;28;9825;-78
2023/08/27 10:43:21;;;;;;;;;26.75;26.00;;;;;33.84;25.46;98701.69;5027069;28;8864;-79
2023/08/27 10:45:51;;;;;;;;;22.25;19.75;;;;;33.94;25.03;98701.28;5027231;28;9759;-78
2023/08/27 10:48:25;;;;;;;;;21.50;20.50;;;;;34.07;24.58;98698.63;4982626;28;8868;-76
2023/08/27 10:51:09;;;;;;;;;19.00;18.25;;;;;34.34;23.85;98696.81;5039726;28;8975;-75
2023/08/27 10:53:53;;;;;;;;;20.75;19.50;;;;;34.29;24.18;98695.75;5034336;28;8876;-78
2023/08/27 10:56:30;;;;;;;;;18.50;18.50;;;;;34.53;23.94;98686.13;4994003;28;8979;-78
2023/08/27 10:58:59;;;;;;;;;17.50;17.50;;;;;34.38;23.54;98689.88;4994479;28;8876;-78
2023/08/27 11:01:28;;;;;;;;;19.75;18.75;;;;;34.35;22.92;98684.84;5003578;28;8835;-77
2023/08/27 11:03:59;;;;;;;;;17.50;17.50;;;;;34.43;23.85;98682.97;5108656;28;8928;-78
2023/08/27 11:06:37;;;;;;;;;20.25;19.50;;;;;34.69;23.87;98682.16;5109974;28;8870;-77
2023/08/27 11:09:14;;;;;;;;;19.25;18.25;;;;;34.57;23.84;98680.06;5109651;28;8979;-78
2023/08/27 11:11:52;;;;;;;;;19.25;18.75;;;;;34.65;22.94;98672.72;5109574;28;8959;-79
2023/08/27 11:14:23;;;;;;;;;18.75;18.00;;;;;34.84;23.42;98674.59;5046213;28;8959;-79
2023/08/27 11:16:57;;;;;;;;;20.75;18.50;;;;;35.13;23.38;98675.19;5029611;28;9609;-81
2023/08/27 11:19:28;;;;;;;;;20.50;19.00;;;;;35.29;23.61;98671.19;5046350;28;9592;-77
2023/08/27 11:22:07;;;;;;;;;17.00;16.50;;;;;35.54;23.07;98674.06;5030056;28;8878;-78
2023/08/27 11:24:42;;;;;;;;;19.75;19.75;;;;;35.60;22.89;98670.44;5030184;28;9603;-78
2023/08/27 11:27:12;;;;;;;;;22.75;22.00;;;;;35.67;23.04;98668.53;5029982;28;8992;-77
2023/08/27 11:29:44;;;;;;;;;21.00;20.75;;;;;35.69;22.28;98665.56;5046569;28;9087;-78
2023/08/27 11:32:13;;;;;;;;;21.00;21.00;;;;;35.81;22.29;98657.56;4984910;28;8876;-77
2023/08/27 11:34:43;;;;;;;;;20.00;19.50;;;;;35.98;22.49;98660.59;5026602;28;8852;-78
2023/08/27 11:37:14;;;;;;;;;17.50;17.50;;;;;36.09;22.56;98648.97;5026924;28;8857;-82